Time;durP1;ratioP1;P1;durP2;ratioP2;P2;SDS_P1;SDS_P2;PMS_P1;PMS_P2;Temp;Humidity;BMP_temperature;BMP_pressure;BME280_temperature;BME280_humidity;BME280_pressure;Samples;Min_cycle;Max_cycle;Signal;HPM_P1;HPM_P2
2021/05/25 00:01:23;;;;;;;9.40;2.33;;;;;;;8.13;74.67;100919.22;4904515;29;20033;-78
2021/05/25 00:03:49;;;;;;;4.47;1.17;;;;;;;8.11;74.86;100921.84;4904636;29;20044;-79
2021/05/25 00:06:14;;;;;;;6.82;1.45;;;;;;;7.61;74.99;100846.81;4904183;29;20064;-79
2021/05/25 00:08:40;;;;;;;6.05;1.50;;;;;;;8.06;75.28;100930.69;4904882;29;20025;-78
2021/05/25 00:11:06;;;;;;;7.30;1.50;;;;;;;8.03;75.68;100923.78;4904446;29;20066;-77
2021/05/25 00:13:31;;;;;;;4.60;1.48;;;;;;;8.02;76.08;100928.13;4904388;29;20096;-77
2021/05/25 00:15:57;;;;;;;6.90;1.55;;;;;;;8.04;76.11;100932.44;4905509;29;20073;-78
2021/05/25 00:18:22;;;;;;;7.53;1.60;;;;;;;8.02;76.45;100930.75;4905317;29;20091;-80
2021/05/25 00:20:50;;;;;;;5.50;1.80;;;;;;;8.05;76.76;100939.38;4905305;29;20029;-76
2021/05/25 00:23:16;;;;;;;6.65;1.88;;;;;;;7.92;76.73;100929.25;4905029;29;20041;-75
2021/05/25 00:25:42;;;;;;;17.65;2.40;;;;;;;7.91;76.76;100922.34;4905239;29;20073;-76
2021/05/25 00:28:08;;;;;;;5.70;2.05;;;;;;;7.66;76.75;100893.47;4906484;29;20041;-79
2021/05/25 00:30:37;;;;;;;6.78;1.70;;;;;;;7.61;76.93;100887.53;4923030;29;20155;-77
2021/05/25 00:33:04;;;;;;;5.97;1.90;;;;;;;8.01;77.13;100965.41;4924617;29;20024;-77
2021/05/25 00:35:34;;;;;;;6.78;2.00;;;;;;;7.99;77.59;100961.16;4907910;29;20074;-77
2021/05/25 00:38:00;;;;;;;9.25;2.10;;;;;;;8.01;77.37;100977.56;4905286;29;20029;-77
2021/05/25 00:40:26;;;;;;;8.30;2.30;;;;;;;8.01;76.97;100973.22;4905620;29;20050;-79
2021/05/25 00:42:51;;;;;;;8.63;1.95;;;;;;;8.06;77.23;100970.53;4905586;29;20039;-78
2021/05/25 00:45:18;;;;;;;6.15;1.90;;;;;;;7.97;77.08;100957.72;4907117;29;20041;-77
2021/05/25 00:47:44;;;;;;;7.55;2.40;;;;;;;8.08;77.35;100967.88;4923988;29;20040;-77
2021/05/25 00:50:13;;;;;;;7.47;2.50;;;;;;;8.07;77.49;100974.84;4923138;29;20057;-78
2021/05/25 00:52:47;;;;;;;7.28;2.13;;;;;;;8.02;77.60;100961.09;4923976;29;20060;-76
2021/05/25 00:55:30;;;;;;;7.95;2.30;;;;;;;7.97;77.42;100958.59;4924119;29;20191;-77
2021/05/25 00:58:00;;;;;;;11.13;3.05;;;;;;;7.95;78.45;100955.16;4923985;29;20033;-77
2021/05/25 01:00:30;;;;;;;6.85;2.58;;;;;;;8.07;78.59;100977.44;4908927;29;20033;-82
2021/05/25 01:02:56;;;;;;;10.63;2.40;;;;;;;8.03;78.95;100978.38;4905631;29;20037;-77
2021/05/25 01:05:23;;;;;;;9.57;2.83;;;;;;;7.93;79.31;100972.53;4905375;29;20052;-77
2021/05/25 01:07:50;;;;;;;11.13;2.45;;;;;;;7.83;79.21;100958.06;4905395;29;20029;-77
2021/05/25 01:10:21;;;;;;;7.57;2.50;;;;;;;7.80;79.47;100958.97;4905460;29;20088;-77
2021/05/25 01:12:54;;;;;;;6.82;2.42;;;;;;;7.56;79.75;100929.19;4905678;29;20022;-77
2021/05/25 01:15:21;;;;;;;10.65;2.47;;;;;;;7.86;79.86;100983.97;4887037;29;20033;-78
2021/05/25 01:17:47;;;;;;;11.20;2.72;;;;;;;7.87;79.83;100985.66;4902861;29;20029;-80
2021/05/25 01:20:15;;;;;;;8.50;2.47;;;;;;;7.87;79.72;100988.25;4924309;29;20048;-81
2021/05/25 01:22:41;;;;;;;5.47;2.40;;;;;;;7.88;79.68;100989.13;4924298;29;20096;-79
2021/05/25 01:25:14;;;;;;;9.18;2.20;;;;;;;7.69;79.79;100950.56;4922930;29;20055;-77
2021/05/25 01:27:42;;;;;;;6.37;3.00;;;;;;;7.93;79.82;100990.72;4924120;29;20060;-78
2021/05/25 01:30:10;;;;;;;9.02;2.03;;;;;;;7.92;79.31;100995.97;4923830;29;20298;-79
2021/05/25 01:32:38;;;;;;;7.35;2.00;;;;;;;7.93;79.33;100995.94;4924192;29;20024;-79
2021/05/25 01:35:05;;;;;;;8.23;1.88;;;;;;;7.86;79.45;100978.78;4923686;29;20036;-78
2021/05/25 01:37:33;;;;;;;4.68;1.52;;;;;;;7.94;79.19;100984.66;4924139;29;20040;-80
2021/05/25 01:40:00;;;;;;;9.18;2.03;;;;;;;7.96;79.47;100990.66;4939316;29;20091;-78
2021/05/25 01:42:37;;;;;;;7.20;1.95;;;;;;;7.69;79.25;100945.38;4923897;29;20024;-79
2021/05/25 01:45:07;;;;;;;10.18;2.28;;;;;;;7.98;79.25;100988.03;4906639;29;20036;-78
2021/05/25 01:47:33;;;;;;;8.57;2.38;;;;;;;8.01;79.81;100991.41;4905109;29;20044;-78
2021/05/25 01:50:12;;;;;;;7.00;2.10;;;;;;;7.97;79.58;100986.31;4904733;29;20025;-78
2021/05/25 01:53:01;;;;;;;9.98;2.60;;;;;;;8.04;79.59;100989.66;4904377;29;20029;-77
2021/05/25 01:55:46;;;;;;;12.43;2.83;;;;;;;8.05;79.92;100983.56;4904312;29;20052;-79
2021/05/25 01:58:18;;;;;;;9.52;2.88;;;;;;;7.95;80.39;100975.13;4904494;29;20029;-78
2021/05/25 02:00:46;;;;;;;13.65;2.97;;;;;;;7.99;80.31;100994.94;4904706;29;20085;-79
2021/05/25 02:03:13;;;;;;;12.23;2.97;;;;;;;8.02;80.41;100989.69;4904854;29;20033;-81
2021/05/25 02:05:39;;;;;;;10.57;3.10;;;;;;;8.04;80.17;100987.03;4904092;29;20021;-79
2021/05/25 02:08:07;;;;;;;9.98;3.03;;;;;;;8.03;80.39;100988.78;4903393;29;20033;-78
2021/05/25 02:10:40;;;;;;;8.25;3.33;;;;;;;7.76;81.09;100946.09;4903759;29;20022;-79
2021/05/25 02:13:11;;;;;;;10.50;3.45;;;;;;;8.02;80.71;100987.09;4904620;29;20036;-82
2021/05/25 02:15:38;;;;;;;8.77;3.00;;;;;;;8.06;80.81;100980.91;4904668;29;20056;-78
2021/05/25 02:18:17;;;;;;;9.23;3.03;;;;;;;8.08;80.82;100986.06;4904526;29;20052;-79
2021/05/25 02:20:45;;;;;;;8.23;2.85;;;;;;;8.00;80.72;100983.66;4903771;29;20033;-85
2021/05/25 02:23:11;;;;;;;7.97;2.65;;;;;;;7.96;81.26;100979.44;4903907;29;20045;-77
2021/05/25 02:25:37;;;;;;;12.30;3.00;;;;;;;7.99;81.18;100987.16;4904141;29;20041;-80
2021/05/25 02:28:04;;;;;;;10.68;3.53;;;;;;;7.98;81.28;101001.03;4904321;29;20025;-82
2021/05/25 02:30:30;;;;;;;9.05;3.00;;;;;;;7.94;81.66;101007.19;4904145;29;20029;-78
2021/05/25 02:32:58;;;;;;;9.13;2.88;;;;;;;7.72;81.69;100967.84;4904382;29;20045;-81
2021/05/25 02:35:24;;;;;;;13.30;3.13;;;;;;;7.73;81.84;100975.59;4903983;29;20084;-81
2021/05/25 02:37:50;;;;;;;10.48;3.30;;;;;;;7.65;81.57;100965.38;4903971;29;20053;-82
2021/05/25 02:40:16;;;;;;;11.18;3.03;;;;;;;7.90;81.41;101002.94;4904047;29;20055;-81
2021/05/25 02:42:42;;;;;;;10.45;2.83;;;;;;;7.90;81.35;100997.75;4904153;29;20036;-82
2021/05/25 02:45:08;;;;;;;9.63;3.05;;;;;;;7.89;81.51;100998.66;4904269;29;20037;-80
2021/05/25 02:47:33;;;;;;;8.98;2.60;;;;;;;7.65;81.52;100965.38;4904152;29;20118;-82
2021/05/25 02:50:10;;;;;;;10.93;3.40;;;;;;;7.83;81.66;100992.69;4907251;29;20037;-79
2021/05/25 02:52:38;;;;;;;10.82;3.13;;;;;;;7.87;81.87;101000.41;4914118;29;20033;-84
2021/05/25 02:55:10;;;;;;;12.23;3.17;;;;;;;7.84;81.63;101003.94;4904222;29;20041;-85
2021/05/25 02:57:36;;;;;;;6.85;2.72;;;;;;;7.85;82.10;101011.69;4904065;29;20048;-84
2021/05/25 03:00:10;;;;;;;10.13;3.47;;;;;;;7.83;82.18;101012.63;4904215;29;20025;-82
2021/05/25 03:02:36;;;;;;;13.77;3.33;;;;;;;7.78;82.78;101010.13;4904198;29;20032;-83
2021/05/25 03:05:04;;;;;;;12.18;3.90;;;;;;;7.80;82.80;101015.28;4904192;29;20033;-82
2021/05/25 03:07:29;;;;;;;11.30;3.55;;;;;;;7.82;82.99;101022.19;4912755;29;20020;-84
2021/05/25 03:09:55;;;;;;;8.45;2.75;;;;;;;7.85;82.65;101014.31;4922679;29;20037;-82
2021/05/25 03:12:20;;;;;;;10.13;3.30;;;;;;;7.86;82.58;101009.97;4922258;29;20032;-86
2021/05/25 03:14:46;;;;;;;9.07;2.78;;;;;;;7.52;82.68;100963.94;4922767;29;20025;-85
2021/05/25 03:17:12;;;;;;;8.27;2.65;;;;;;;7.56;82.97;100968.16;4916205;29;20029;-82
2021/05/25 03:19:37;;;;;;;13.82;3.17;;;;;;;7.68;83.09;101006.88;4902915;29;20025;-80
2021/05/25 03:22:03;;;;;;;14.85;3.42;;;;;;;7.73;83.64;101024.13;4903922;29;20036;-80
2021/05/25 03:24:29;;;;;;;9.80;3.42;;;;;;;7.71;84.05;101020.69;4907396;29;20088;-81
2021/05/25 03:26:55;;;;;;;12.48;3.42;;;;;;;7.72;83.48;101025.84;4911492;29;20028;-79
2021/05/25 03:29:20;;;;;;;13.25;3.20;;;;;;;7.75;83.47;101027.53;4925862;29;20036;-81
2021/05/25 03:31:46;;;;;;;18.00;4.25;;;;;;;7.61;83.84;101014.81;4926660;29;20032;-80
2021/05/25 03:34:12;;;;;;;11.65;3.17;;;;;;;7.70;83.94;101032.81;4926315;29;20044;-83
2021/05/25 03:36:37;;;;;;;13.07;3.25;;;;;;;7.68;83.94;101034.59;4909634;29;20081;-82
2021/05/25 03:39:04;;;;;;;10.48;2.50;;;;;;;7.71;83.75;101036.28;4907990;29;20017;-82
2021/05/25 03:41:30;;;;;;;12.48;3.28;;;;;;;7.67;84.06;101032.88;4907579;29;20040;-85
2021/05/25 03:43:56;;;;;;;9.77;3.28;;;;;;;7.51;84.03;101001.19;4923208;29;20124;-81
2021/05/25 03:46:22;;;;;;;13.05;3.58;;;;;;;7.53;84.51;101017.56;4926411;29;20068;-80
2021/05/25 03:48:47;;;;;;;8.38;2.80;;;;;;;7.60;84.30;101021.75;4912377;29;20021;-81
2021/05/25 03:51:12;;;;;;;8.57;2.90;;;;;;;7.62;84.21;101027.78;4905703;29;20033;-86
2021/05/25 03:53:38;;;;;;;12.40;3.00;;;;;;;7.36;84.47;100991.94;4905332;29;20048;-86
2021/05/25 03:58:49;;;;;;;11.60;3.80;;;;;;;7.55;84.35;101036.59;4887783;29;20037;-87
2021/05/25 04:01:19;;;;;;;6.97;2.45;;;;;;;7.62;84.37;101035.56;4890398;29;20032;-87
2021/05/25 04:03:50;;;;;;;6.53;2.60;;;;;;;7.49;83.77;101021.97;4903648;29;20048;-84
2021/05/25 04:06:16;;;;;;;7.70;2.75;;;;;;;7.53;83.98;101038.34;4906365;29;20045;-81
2021/05/25 04:08:42;;;;;;;8.00;3.25;;;;;;;7.56;84.21;101058.25;4905989;29;20037;-87
2021/05/25 04:11:07;;;;;;;10.77;3.45;;;;;;;7.54;84.22;101058.25;4905822;29;20509;-87
2021/05/25 04:13:33;;;;;;;9.13;2.78;;;;;;;7.40;84.72;101045.53;4905328;29;20032;-85
2021/05/25 04:15:59;;;;;;;13.63;3.80;;;;;;;7.49;84.91;101065.28;4906423;29;20029;-86
2021/05/25 04:18:24;;;;;;;13.35;4.22;;;;;;;7.48;85.33;101066.16;4906141;29;20061;-86
2021/05/25 04:20:50;;;;;;;12.18;3.70;;;;;;;7.46;85.77;101066.19;4918883;29;20108;-84
2021/05/25 04:23:17;;;;;;;10.27;3.67;;;;;;;7.35;85.60;101043.03;4924032;29;20036;-86
2021/05/25 04:25:42;;;;;;;12.95;3.83;;;;;;;7.29;85.83;101039.72;4920731;29;20054;-86
2021/05/25 04:28:08;;;;;;;10.45;3.80;;;;;;;6.86;85.72;100958.28;4904798;29;20048;-86
2021/05/25 04:30:34;;;;;;;6.25;3.38;;;;;;;7.37;85.37;101038.66;4905260;29;20037;-86
2021/05/25 04:32:59;;;;;;;12.60;3.20;;;;;;;7.50;85.43;101056.59;4904686;29;20032;-85
2021/05/25 04:35:25;;;;;;;12.95;3.45;;;;;;;7.59;85.17;101068.56;4903966;29;20048;-86
2021/05/25 04:37:51;;;;;;;12.50;3.88;;;;;;;7.58;85.43;101072.91;4903870;29;20081;-87
2021/05/25 04:40:18;;;;;;;9.10;3.10;;;;;;;7.64;85.25;101080.59;4904654;29;20101;-86
2021/05/25 04:42:44;;;;;;;7.70;3.08;;;;;;;7.73;84.11;101081.28;4907094;29;20075;-86
2021/05/25 04:45:10;;;;;;;8.77;2.50;;;;;;;7.82;84.09;101088.88;4908836;29;20029;-83
2021/05/25 04:47:36;;;;;;;10.73;3.28;;;;;;;7.90;83.36;101080.91;4905942;29;20097;-81
2021/05/25 04:50:07;;;;;;;5.97;2.78;;;;;;;7.81;82.41;101027.38;4905969;29;20028;-86
2021/05/25 04:52:34;;;;;;;10.93;3.10;;;;;;;8.68;80.47;101080.09;4904785;29;20024;-86
2021/05/25 04:55:07;;;;;;;10.93;2.70;;;;;;;9.20;78.56;101093.56;4905331;29;20024;-81
2021/05/25 04:57:32;;;;;;;8.20;2.80;;;;;;;9.40;77.14;101095.66;4902953;29;20052;-86
2021/05/25 04:59:58;;;;;;;5.75;2.35;;;;;;;9.35;76.88;101050.59;4901403;29;20061;-86
2021/05/25 05:02:24;;;;;;;10.45;3.50;;;;;;;9.69;75.81;101081.81;4901464;29;20024;-85
2021/05/25 05:04:49;;;;;;;10.68;2.80;;;;;;;9.91;75.27;101084.66;4901246;29;20060;-86
2021/05/25 05:07:15;;;;;;;11.30;3.20;;;;;;;10.12;74.18;101103.19;4902147;29;20115;-85
2021/05/25 05:09:40;;;;;;;8.70;2.60;;;;;;;10.02;74.54;101086.06;4900998;29;20037;-86
2021/05/25 05:12:06;;;;;;;10.02;3.28;;;;;;;9.96;74.69;101088.88;4902110;29;20033;-85
2021/05/25 05:14:32;;;;;;;8.85;2.63;;;;;;;9.44;76.27;101069.44;4901805;29;20021;-85
2021/05/25 05:16:57;;;;;;;7.82;2.88;;;;;;;9.10;76.96;101065.13;4897919;29;20066;-85
2021/05/25 05:19:46;;;;;;;10.45;3.13;;;;;;;9.23;78.11;101115.16;4899026;29;20071;-85
2021/05/25 05:22:28;;;;;;;11.40;2.70;;;;;;;8.92;78.31;101097.72;4891851;29;20037;-86
2021/05/25 05:24:54;;;;;;;8.32;3.00;;;;;;;9.11;78.44;101111.13;4899037;29;20091;-84
2021/05/25 05:27:20;;;;;;;8.18;2.90;;;;;;;8.76;77.01;101075.56;4901313;29;20041;-85
2021/05/25 05:29:45;;;;;;;8.50;2.70;;;;;;;8.91;77.60;101097.75;4894601;29;20101;-81
2021/05/25 05:32:11;;;;;;;8.07;2.33;;;;;;;8.95;77.55;101128.03;4900943;29;20025;-84
2021/05/25 05:34:37;;;;;;;6.53;2.30;;;;;;;8.85;77.52;101129.13;4898821;29;20416;-84
2021/05/25 05:37:03;;;;;;;5.55;2.25;;;;;;;9.00;77.14;101135.75;4891405;29;20028;-86
2021/05/25 05:39:29;;;;;;;9.02;2.63;;;;;;;8.88;77.41;101118.66;4898282;29;20028;-85
2021/05/25 05:41:55;;;;;;;9.15;1.88;;;;;;;9.00;76.99;101138.34;4900427;29;20061;-84
2021/05/25 05:44:20;;;;;;;8.00;2.45;;;;;;;8.94;77.04;101127.16;4890950;29;20109;-77
2021/05/25 05:46:54;;;;;;;5.55;2.00;;;;;;;8.94;77.31;101126.31;4895831;29;20070;-81
2021/05/25 05:49:22;;;;;;;7.10;2.30;;;;;;;8.55;77.14;101071.72;4900779;29;20028;-85
2021/05/25 05:51:49;;;;;;;5.63;2.17;;;;;;;9.03;76.94;101126.06;4901289;29;20059;-82
2021/05/25 05:54:16;;;;;;;4.75;1.77;;;;;;;9.15;76.34;101129.28;4900885;29;20099;-82
2021/05/25 05:56:44;;;;;;;7.85;3.05;;;;;;;9.16;75.88;101134.44;4893556;29;20037;-81
2021/05/25 05:59:10;;;;;;;8.23;2.22;;;;;;;9.25;75.49;101134.22;4883224;29;20041;-85
2021/05/25 06:01:35;;;;;;;7.18;2.00;;;;;;;9.33;75.09;101139.22;4871454;29;20074;-83
2021/05/25 06:04:01;;;;;;;8.10;2.22;;;;;;;9.31;75.07;101141.00;4881536;29;20040;-85
2021/05/25 06:06:27;;;;;;;7.90;2.03;;;;;;;9.14;74.84;101104.97;4886960;29;20033;-82
2021/05/25 06:08:53;;;;;;;6.95;2.17;;;;;;;9.13;74.20;101098.94;4890404;29;20037;-84
2021/05/25 06:11:20;;;;;;;4.80;1.85;;;;;;;9.43;74.78;101148.50;4896208;29;20060;-85
2021/05/25 06:13:45;;;;;;;5.78;2.15;;;;;;;9.58;74.35;101149.88;4895319;29;20100;-86
2021/05/25 06:16:11;;;;;;;7.45;1.90;;;;;;;9.60;73.55;101150.66;4895878;29;20097;-85
2021/05/25 06:18:37;;;;;;;7.30;1.85;;;;;;;9.56;73.66;101143.84;4890414;29;20041;-87
2021/05/25 06:21:03;;;;;;;5.93;2.10;;;;;;;9.78;73.54;101169.34;4886632;29;20040;-86
2021/05/25 06:23:31;;;;;;;7.55;2.25;;;;;;;9.77;73.11;101163.25;4886401;29;20041;-86
2021/05/25 06:26:02;;;;;;;14.38;2.30;;;;;;;9.86;73.33;101177.81;4885395;29;20128;-85
2021/05/25 06:28:32;;;;;;;6.53;2.30;;;;;;;9.91;73.16;101191.56;4891076;29;20036;-85
2021/05/25 06:30:59;;;;;;;6.05;1.90;;;;;;;9.93;72.79;101179.31;4893346;29;20112;-87
2021/05/25 06:33:25;;;;;;;5.75;2.03;;;;;;;10.06;72.89;101185.06;4885346;29;20037;-88
2021/05/25 06:35:50;;;;;;;7.47;2.25;;;;;;;10.01;71.98;101173.91;4897664;29;20032;-86
2021/05/25 06:38:16;;;;;;;5.10;1.60;;;;;;;10.16;72.07;101187.41;4905318;29;20454;-87
2021/05/25 06:40:43;;;;;;;6.00;1.65;;;;;;;9.99;70.49;101139.19;4885967;29;20040;-87
2021/05/25 06:43:09;;;;;;;7.38;1.88;;;;;;;10.24;70.53;101193.25;4884798;29;20394;-87
2021/05/25 06:45:34;;;;;;;8.73;1.83;;;;;;;10.41;69.99;101193.66;4903747;29;20036;-84
2021/05/25 06:48:00;;;;;;;7.95;2.05;;;;;;;10.63;69.33;101192.16;4903225;29;20039;-86
2021/05/25 06:50:25;;;;;;;5.40;1.48;;;;;;;10.71;69.21;101200.63;4886263;29;20033;-87
2021/05/25 06:52:51;;;;;;;7.57;2.03;;;;;;;10.78;68.62;101194.31;4884399;29;20069;-87
2021/05/25 06:55:20;;;;;;;10.18;2.17;;;;;;;10.72;67.16;101195.34;4884082;29;20498;-80
2021/05/25 06:57:45;;;;;;;6.32;1.80;;;;;;;10.67;66.86;101206.84;4881108;29;20036;-85
2021/05/25 07:00:13;;;;;;;5.03;1.50;;;;;;;10.60;66.85;101198.31;4885464;29;20029;-90
2021/05/25 07:02:39;;;;;;;7.57;2.22;;;;;;;10.71;67.08;101195.41;4902797;29;20032;-91
2021/05/25 07:05:09;;;;;;;6.85;2.33;;;;;;;10.31;66.52;101140.00;4885838;29;20053;-90
2021/05/25 07:07:36;;;;;;;5.85;1.60;;;;;;;10.57;65.90;101180.16;4889644;29;20029;-91
2021/05/25 07:10:04;;;;;;;8.30;1.75;;;;;;;10.76;66.25;101216.16;4886877;29;20043;-90
2021/05/25 07:12:30;;;;;;;7.78;1.73;;;;;;;10.91;66.34;101209.59;4884864;29;20036;-91
2021/05/25 07:14:57;;;;;;;6.30;1.58;;;;;;;10.88;65.82;101227.06;4886599;29;20335;-91
2021/05/25 07:17:23;;;;;;;9.88;2.00;;;;;;;10.52;66.02;101161.16;4892165;29;20405;-93
2021/05/25 07:19:50;;;;;;;7.15;1.70;;;;;;;10.89;66.58;101209.66;4896148;29;20048;-92
2021/05/25 07:22:15;;;;;;;7.43;2.22;;;;;;;11.05;66.12;101223.06;4874266;29;20069;-91
2021/05/25 07:24:41;;;;;;;9.48;1.85;;;;;;;11.03;65.95;101227.47;4871289;29;20053;-92
2021/05/25 07:27:10;;;;;;;7.47;2.20;;;;;;;11.08;66.64;101254.31;4871479;29;20041;-92
2021/05/25 07:29:35;;;;;;;6.72;1.95;;;;;;;11.12;66.46;101242.00;4882532;29;20088;-83
2021/05/25 07:32:02;;;;;;;7.15;2.22;;;;;;;10.92;66.90;101200.84;4885244;29;20037;-85
2021/05/25 07:34:28;;;;;;;6.93;2.15;;;;;;;11.12;66.92;101242.88;4879560;29;20029;-87
2021/05/25 07:36:54;;;;;;;7.05;2.05;;;;;;;11.15;65.73;101247.16;4883254;29;20049;-88
2021/05/25 07:39:20;;;;;;;8.02;2.22;;;;;;;11.07;65.51;101220.41;4883077;29;20033;-87
2021/05/25 07:41:45;;;;;;;8.88;2.70;;;;;;;11.36;64.78;101251.69;4882882;29;20044;-84
2021/05/25 07:44:13;;;;;;;8.77;2.15;;;;;;;11.35;64.73;101255.22;4883744;29;20037;-90
2021/05/25 07:46:38;;;;;;;7.60;2.20;;;;;;;11.09;64.30;101227.28;4875291;29;20059;-89
2021/05/25 07:49:04;;;;;;;6.10;1.95;;;;;;;11.51;64.09;101262.53;4872033;29;20041;-89
2021/05/25 07:51:30;;;;;;;8.15;2.13;;;;;;;11.45;63.44;101254.88;4882889;29;20327;-81
2021/05/25 07:53:57;;;;;;;9.43;2.10;;;;;;;11.53;62.56;101248.53;4895054;29;20048;-88
2021/05/25 07:56:23;;;;;;;9.65;2.67;;;;;;;11.51;62.19;101245.09;4903283;29;20072;-90
2021/05/25 07:58:48;;;;;;;8.85;2.22;;;;;;;11.75;62.61;101270.47;4887225;29;20029;-88
2021/05/25 08:01:14;;;;;;;5.88;1.83;;;;;;;11.47;62.01;101213.88;4883763;29;20044;-85
2021/05/25 08:03:41;;;;;;;7.90;1.98;;;;;;;11.92;61.47;101254.19;4887272;29;20052;-83
2021/05/25 08:06:07;;;;;;;8.35;2.10;;;;;;;11.83;61.48;101224.00;4883796;29;20041;-83
2021/05/25 08:08:32;;;;;;;9.45;1.92;;;;;;;11.95;60.25;101278.50;4884724;29;20367;-82
2021/05/25 08:10:59;;;;;;;5.30;1.63;;;;;;;11.78;59.55;101278.19;4895568;29;20040;-87
2021/05/25 08:13:26;;;;;;;6.45;1.90;;;;;;;12.01;60.69;101282.69;4908443;29;20036;-81
2021/05/25 08:15:53;;;;;;;4.78;1.70;;;;;;;11.89;58.79;101281.31;4911646;29;20025;-80
2021/05/25 08:21:00;;;;;;;6.15;1.90;;;;;;;12.07;59.46;101276.38;4884694;29;20045;-88
2021/05/25 08:23:26;;;;;;;5.55;1.58;;;;;;;12.12;59.97;101291.03;4873063;29;20495;-88
2021/05/25 08:25:52;;;;;;;6.53;2.13;;;;;;;12.07;57.63;101269.41;4879294;29;20068;-88
2021/05/25 08:28:19;;;;;;;5.03;1.55;;;;;;;12.10;57.74;101305.91;4886968;29;20506;-85
2021/05/25 08:30:45;;;;;;;4.57;1.70;;;;;;;11.77;57.68;101235.50;4894420;29;20036;-87
2021/05/25 08:33:13;;;;;;;6.07;1.88;;;;;;;12.20;57.78;101290.75;4888853;29;20037;-89
2021/05/25 08:35:41;;;;;;;13.50;1.75;;;;;;;12.21;57.92;101266.28;4886888;29;20037;-82
2021/05/25 08:38:10;;;;;;;5.22;1.50;;;;;;;12.47;58.03;101309.88;4891390;29;20060;-84
2021/05/25 08:40:37;;;;;;;5.78;1.65;;;;;;;12.21;56.72;101253.19;4866166;29;20072;-84
2021/05/25 08:43:06;;;;;;;5.75;1.75;;;;;;;12.77;56.55;101282.59;4888882;29;20486;-81
2021/05/25 08:45:32;;;;;;;8.10;1.80;;;;;;;13.07;56.25;101292.78;4885767;29;20029;-87
2021/05/25 08:47:58;;;;;;;3.97;1.60;;;;;;;12.80;55.97;101301.66;4909823;29;20400;-88
2021/05/25 08:50:26;;;;;;;4.97;1.50;;;;;;;12.63;54.23;101264.75;4890556;29;20033;-88
2021/05/25 08:52:53;;;;;;;4.38;1.50;;;;;;;12.78;55.24;101290.38;4889193;29;20044;-87
2021/05/25 08:55:21;;;;;;;4.65;1.50;;;;;;;13.09;54.99;101301.44;4887798;29;20036;-85
2021/05/25 08:57:47;;;;;;;5.85;1.67;;;;;;;12.80;55.48;101291.19;4889667;29;20090;-85
2021/05/25 09:00:15;;;;;;;5.28;1.33;;;;;;;12.60;55.41;101288.47;4898835;29;20049;-81
2021/05/25 09:02:41;;;;;;;6.07;1.65;;;;;;;12.63;55.46;101304.03;4901121;29;20041;-80
2021/05/25 09:05:20;;;;;;;5.75;1.67;;;;;;;12.78;54.02;101295.63;4902500;29;20113;-81
2021/05/25 09:07:58;;;;;;;4.57;1.40;;;;;;;13.23;52.53;101320.13;4918603;29;20044;-79
2021/05/25 09:10:32;;;;;;;5.25;1.00;;;;;;;13.87;48.89;101313.19;4904499;29;20116;-81
2021/05/25 09:12:58;;;;;;;5.50;1.10;;;;;;;13.65;48.34;101315.84;4905049;29;20029;-84
2021/05/25 09:15:38;;;;;;;4.20;0.95;;;;;;;13.48;48.57;101318.31;4897266;29;20048;-84
2021/05/25 09:18:04;;;;;;;4.35;1.10;;;;;;;13.42;48.68;101308.91;4897361;29;20037;-84
2021/05/25 09:20:46;;;;;;;7.40;1.88;;;;;;;13.44;48.59;101280.88;4892715;29;20044;-85
2021/05/25 09:23:16;;;;;;;4.63;1.52;;;;;;;13.53;50.99;101306.72;4889389;29;20041;-83
2021/05/25 09:26:18;;;;;;;3.70;1.60;;;;;;;13.67;51.10;101310.53;4884553;29;20041;-83
2021/05/25 09:29:03;;;;;;;3.92;1.20;;;;;;;13.20;53.01;101309.72;4882837;29;20052;-85
2021/05/25 09:31:51;;;;;;;6.88;1.50;;;;;;;13.30;53.78;101315.47;4872126;29;20498;-85
2021/05/25 09:34:17;;;;;;;5.20;1.63;;;;;;;13.83;53.35;101305.50;4875333;29;20045;-83
2021/05/25 09:37:03;;;;;;;4.75;1.65;;;;;;;14.29;51.48;101308.75;4878067;29;20053;-85
2021/05/25 09:39:48;;;;;;;2.72;1.38;;;;;;;13.77;50.56;101290.88;4881671;29;20037;-81
2021/05/25 09:42:17;;;;;;;5.55;1.35;;;;;;;13.74;50.16;101301.50;4871030;29;20025;-81
2021/05/25 09:45:09;;;;;;;7.70;1.40;;;;;;;13.88;49.71;101314.88;4893129;29;20427;-81
2021/05/25 09:47:53;;;;;;;5.65;1.60;;;;;;;13.35;52.14;101315.28;4893303;29;20063;-82
2021/05/25 09:50:28;;;;;;;4.13;1.67;;;;;;;13.40;50.56;101298.50;4892521;29;20048;-81
2021/05/25 09:53:00;;;;;;;;;;;;;;;13.92;49.58;101321.69;4892392;29;20045;-81
2021/05/25 09:55:26;;;;;;;5.78;1.30;;;;;;;14.54;48.32;101303.28;4896287;29;19939;-82
2021/05/25 09:57:54;;;;;;;4.13;1.42;;;;;;;14.63;47.58;101322.19;4896505;29;20088;-83
2021/05/25 10:00:25;;;;;;;3.78;1.30;;;;;;;14.38;46.20;101320.66;4896317;29;20041;-82
2021/05/25 10:03:13;;;;;;;3.63;1.05;;;;;;;14.16;46.53;101316.34;4905294;29;20044;-84
2021/05/25 10:05:40;;;;;;;4.63;1.25;;;;;;;14.06;46.20;101317.63;4897036;29;20041;-83
2021/05/25 10:08:06;;;;;;;4.32;1.10;;;;;;;14.18;46.12;101324.97;4901919;29;20040;-83
2021/05/25 10:10:34;;;;;;;3.55;1.20;;;;;;;14.25;46.08;101310.66;4903116;29;20025;-82
2021/05/25 10:13:00;;;;;;;6.32;1.67;;;;;;;14.83;45.88;101298.50;4903022;29;20065;-80
2021/05/25 10:15:27;;;;;;;5.15;1.30;;;;;;;14.89;45.63;101295.59;4902784;29;20061;-81
2021/05/25 10:18:11;;;;;;;3.58;1.25;;;;;;;15.01;45.36;101280.16;4899646;29;20037;-79
2021/05/25 10:20:39;;;;;;;3.10;1.13;;;;;;;14.79;46.78;101307.44;4898787;29;20126;-80
2021/05/25 10:23:04;;;;;;;5.10;1.17;;;;;;;14.52;46.35;101263.06;4897410;29;20063;-81
2021/05/25 10:25:34;;;;;;;4.22;1.85;;;;;;;14.88;46.57;101307.03;4881833;29;20040;-82
2021/05/25 10:28:05;;;;;;;4.05;1.48;;;;;;;14.72;45.74;101298.13;4892413;29;20071;-82
2021/05/25 10:30:39;;;;;;;4.57;1.50;;;;;;;14.32;47.03;101274.50;4888526;29;20056;-80
2021/05/25 10:33:04;;;;;;;3.35;1.15;;;;;;;14.15;48.21;101319.03;4880895;29;20037;-82
2021/05/25 10:35:50;;;;;;;5.00;1.33;;;;;;;14.36;47.82;101317.25;4899164;29;20066;-81
2021/05/25 10:38:16;;;;;;;4.55;1.50;;;;;;;14.64;46.48;101321.25;4895692;29;20059;-79
2021/05/25 10:40:47;;;;;;;4.72;1.27;;;;;;;14.54;45.41;101290.13;4877371;29;20041;-79
2021/05/25 10:43:31;;;;;;;4.65;1.15;;;;;;;14.85;45.97;101319.47;4879642;29;20044;-84
2021/05/25 10:46:15;;;;;;;8.13;2.00;;;;;;;14.94;50.63;101310.28;4880281;29;20041;-82
2021/05/25 10:48:54;;;;;;;8.15;2.22;;;;;;;14.40;53.27;101327.56;4863787;29;20056;-79
2021/05/25 10:51:20;;;;;;;10.45;2.70;;;;;;;14.07;54.83;101322.84;4861797;29;20049;-81
2021/05/25 10:53:45;;;;;;;9.45;2.65;;;;;;;13.95;55.36;101323.34;4877141;29;20038;-80
2021/05/25 10:56:27;;;;;;;7.15;2.67;;;;;;;14.28;55.07;101329.84;4879786;29;20092;-81
2021/05/25 10:59:00;;;;;;;6.57;2.92;;;;;;;14.45;53.62;101287.09;4868537;29;20082;-77
2021/05/25 11:01:30;;;;;;;11.82;2.10;;;;;;;15.26;52.78;101326.31;4890411;29;20041;-81
2021/05/25 11:04:09;;;;;;;10.10;2.53;;;;;;;15.01;53.84;101322.22;4864398;29;20049;-81
2021/05/25 11:06:35;;;;;;;7.07;2.47;;;;;;;14.61;54.12;101289.88;4872235;29;20068;-81
2021/05/25 11:09:39;;;;;;;7.95;2.30;;;;;;;14.36;54.32;101304.13;4873916;29;20049;-85
2021/05/25 11:12:12;;;;;;;8.38;2.03;;;;;;;14.42;55.14;101314.34;4872486;29;20049;-87
2021/05/25 11:14:58;;;;;;;7.32;2.05;;;;;;;14.34;54.92;101301.56;4881478;29;20046;-85
2021/05/25 11:17:33;;;;;;;9.23;2.58;;;;;;;14.63;54.85;101273.09;4887373;29;20056;-86
2021/05/25 11:21:35;;;;;;;6.43;2.40;;;;;;;15.38;53.46;101320.47;4891852;29;20060;-84
2021/05/25 11:23:39;;;;;;;6.45;2.30;;;;;;;15.49;52.47;101322.56;4892484;29;20044;-83
2021/05/25 11:26:49;;;;;;;8.23;2.85;;;;;;;15.47;52.31;101319.19;4892983;29;20013;-78
2021/05/25 11:29:28;;;;;;;9.35;2.53;;;;;;;15.44;52.74;101329.84;4885481;29;20136;-86
2021/05/25 11:31:58;;;;;;;10.45;2.55;;;;;;;15.13;53.66;101312.91;4875004;29;20045;-84
2021/05/25 11:34:26;;;;;;;11.55;2.63;;;;;;;15.56;53.31;101316.06;4891517;29;20044;-86
2021/05/25 11:37:04;;;;;;;9.88;2.60;;;;;;;16.11;52.48;101322.16;4887676;29;20392;-83
2021/05/25 11:39:33;;;;;;;10.23;2.30;;;;;;;16.44;51.43;101318.69;4900143;29;20120;-84
2021/05/25 11:42:01;;;;;;;7.00;2.50;;;;;;;16.17;51.06;101324.47;4890514;29;20508;-80
2021/05/25 11:44:35;;;;;;;10.43;3.03;;;;;;;15.62;52.73;101318.41;4896590;29;20116;-87